createdAt,value
2018-06-09T00:01:48.161Z,92.30
2018-06-09T00:04:17.000Z,92.30
2018-06-09T00:06:45.836Z,92.20
2018-06-09T00:09:14.714Z,92.10
2018-06-09T00:11:43.713Z,92.00
2018-06-09T00:14:12.607Z,91.50
2018-06-09T00:16:41.480Z,91.30
2018-06-09T00:19:10.352Z,91.60
2018-06-09T00:21:39.236Z,91.50
2018-06-09T00:24:08.116Z,91.50
2018-06-09T00:26:37.260Z,91.30
2018-06-09T00:29:06.135Z,91.30
2018-06-09T00:31:35.037Z,91.60
2018-06-09T00:34:03.876Z,91.60
2018-06-09T00:36:32.762Z,91.50
2018-06-09T00:39:01.653Z,91.50
2018-06-09T00:41:30.589Z,91.40
2018-06-09T00:43:59.490Z,91.40
2018-06-09T00:46:28.361Z,91.40
2018-06-09T00:48:57.262Z,91.50
2018-06-09T00:51:26.169Z,91.50
2018-06-09T00:53:55.064Z,91.60
2018-06-09T00:56:34.816Z,91.70
2018-06-09T00:59:03.781Z,91.60
2018-06-09T01:01:32.688Z,91.60
2018-06-09T01:04:01.576Z,91.60
2018-06-09T01:06:30.489Z,91.50
2018-06-09T01:08:59.365Z,91.40
2018-06-09T01:11:28.305Z,91.20
2018-06-09T01:13:57.195Z,91.40
2018-06-09T01:16:26.072Z,91.80
2018-06-09T01:18:54.996Z,91.90
2018-06-09T01:21:23.862Z,91.90
2018-06-09T01:23:52.760Z,91.80
2018-06-09T01:26:21.647Z,92.00
2018-06-09T01:28:50.492Z,92.20
2018-06-09T01:31:19.384Z,92.30
2018-06-09T01:33:48.292Z,92.40
2018-06-09T01:36:17.192Z,92.50
2018-06-09T01:38:46.051Z,92.60
2018-06-09T01:41:14.996Z,92.50
2018-06-09T01:43:43.900Z,92.40
2018-06-09T01:51:09.707Z,92.10
2018-06-09T01:53:38.692Z,92.10
2018-06-09T01:56:07.580Z,92.10
2018-06-09T01:58:36.465Z,91.90
2018-06-09T02:01:05.308Z,92.20
2018-06-09T02:06:02.708Z,92.30
2018-06-09T02:08:31.545Z,92.50
2018-06-09T02:11:00.500Z,92.60
2018-06-09T02:13:29.740Z,92.50
2018-06-09T02:15:58.627Z,92.50
2018-06-09T02:18:27.520Z,92.50
2018-06-09T02:20:56.428Z,92.30
2018-06-09T02:23:25.328Z,92.20
2018-06-09T02:25:54.197Z,91.90
2018-06-09T02:28:23.087Z,91.60
2018-06-09T02:33:20.432Z,91.20
2018-06-09T02:35:49.904Z,91.10
2018-06-09T02:38:18.753Z,91.10
2018-06-09T02:40:47.716Z,91.10
2018-06-09T02:43:16.585Z,91.10
2018-06-09T02:45:45.460Z,91.00
2018-06-09T02:48:14.306Z,90.90
2018-06-09T02:50:43.184Z,90.70
2018-06-09T02:53:12.052Z,90.50
2018-06-09T02:55:40.945Z,90.50
2018-06-09T02:58:10.148Z,90.70
2018-06-09T03:00:39.056Z,91.00
2018-06-09T03:03:07.912Z,91.00
2018-06-09T03:05:36.836Z,91.00
2018-06-09T03:08:05.704Z,90.80
2018-06-09T03:10:34.640Z,90.70
2018-06-09T03:13:03.541Z,90.50
2018-06-09T03:15:32.536Z,90.40
2018-06-09T03:18:01.444Z,90.40
2018-06-09T03:20:30.359Z,90.40
2018-06-09T03:22:59.214Z,90.70
2018-06-09T03:25:28.071Z,90.80
2018-06-09T03:27:56.983Z,90.90
2018-06-09T03:30:25.868Z,90.90
2018-06-09T03:32:54.755Z,91.10
2018-06-09T03:35:23.583Z,91.40
2018-06-09T03:37:52.503Z,91.50
2018-06-09T03:40:21.349Z,91.70
2018-06-09T03:42:50.324Z,91.90
2018-06-09T03:45:19.221Z,91.90
2018-06-09T03:47:48.194Z,92.10
2018-06-09T03:50:17.099Z,92.10
2018-06-09T03:52:46.004Z,92.10
2018-06-09T03:55:14.992Z,92.10
2018-06-09T03:57:43.949Z,92.50
2018-06-09T04:00:12.864Z,92.20
2018-06-09T04:02:41.764Z,92.20
2018-06-09T04:05:10.707Z,92.20
2018-06-09T04:07:39.589Z,92.60
2018-06-09T04:10:08.489Z,92.40
2018-06-09T04:12:37.348Z,92.40
2018-06-09T04:15:06.293Z,92.30
2018-06-09T04:17:35.136Z,92.10
2018-06-09T04:20:04.022Z,92.00
2018-06-09T04:22:32.913Z,91.80
2018-06-09T04:25:01.836Z,91.90
2018-06-09T04:27:30.711Z,91.80
2018-06-09T04:29:59.576Z,91.70
2018-06-09T04:32:28.441Z,91.60
2018-06-09T04:34:57.312Z,91.40
2018-06-09T04:37:26.260Z,91.50
2018-06-09T04:39:55.199Z,91.80
2018-06-09T04:42:24.091Z,91.60
2018-06-09T04:44:52.939Z,91.80
2018-06-09T04:47:21.846Z,91.90
2018-06-09T04:49:50.731Z,91.70
2018-06-09T04:52:19.649Z,92.00
2018-06-09T04:54:48.487Z,91.90
2018-06-09T04:57:17.461Z,91.90
2018-06-09T04:59:46.329Z,91.80
2018-06-09T05:04:43.692Z,91.60
2018-06-09T05:09:41.591Z,91.40
2018-06-09T05:12:10.508Z,91.40
2018-06-09T05:14:39.364Z,91.40
2018-06-09T05:17:08.240Z,91.60
2018-06-09T05:19:37.117Z,91.60
2018-06-09T05:22:06.029Z,91.70
2018-06-09T05:24:34.896Z,91.80
2018-06-09T05:29:32.347Z,91.70
2018-06-09T05:32:01.300Z,91.60
2018-06-09T05:34:30.420Z,91.60
2018-06-09T05:36:59.428Z,92.00
2018-06-09T05:39:28.314Z,91.90
2018-06-09T05:41:57.236Z,91.50
2018-06-09T05:44:26.184Z,91.10
2018-06-09T05:46:55.091Z,91.10
2018-06-09T05:49:23.948Z,90.80
2018-06-09T05:51:52.836Z,90.90
2018-06-09T05:54:21.699Z,91.10
2018-06-09T05:56:50.581Z,91.10
2018-06-09T05:59:19.532Z,90.90
2018-06-09T06:01:48.364Z,90.80
2018-06-09T06:04:17.286Z,90.80
2018-06-09T06:06:46.164Z,91.00
2018-06-09T06:09:16.552Z,91.30
2018-06-09T06:14:14.004Z,91.20
2018-06-09T06:16:42.869Z,90.80
2018-06-09T06:19:11.857Z,91.00
2018-06-09T06:21:40.813Z,90.80
2018-06-09T06:24:09.717Z,89.60
2018-06-09T06:26:39.066Z,89.50
2018-06-09T06:29:07.956Z,90.10
2018-06-09T06:31:36.880Z,90.00
2018-06-09T06:34:05.756Z,90.30
2018-06-09T06:36:34.705Z,89.50
2018-06-09T06:39:03.723Z,89.20
2018-06-09T06:41:32.643Z,89.00
2018-06-09T06:44:01.561Z,88.90
2018-06-09T06:46:30.440Z,88.50
2018-06-09T06:48:59.364Z,88.80
2018-06-09T06:51:28.295Z,89.00
2018-06-09T06:53:57.193Z,88.90
2018-06-09T06:58:54.520Z,88.90
2018-06-09T07:01:23.416Z,87.70
2018-06-09T07:03:52.331Z,88.30
2018-06-09T07:06:21.196Z,88.70
2018-06-09T07:08:50.120Z,88.10
2018-06-09T07:11:19.005Z,87.20
2018-06-09T07:13:47.967Z,87.80
2018-06-09T07:16:16.815Z,87.60
2018-06-09T07:18:45.783Z,86.60
2018-06-09T07:21:14.645Z,86.20
2018-06-09T07:23:43.655Z,85.50
2018-06-09T07:26:12.535Z,84.80
2018-06-09T07:28:41.445Z,84.70
2018-06-09T07:31:10.381Z,84.20
2018-06-09T07:36:07.724Z,84.50
2018-06-09T07:38:36.603Z,84.50
2018-06-09T07:41:05.491Z,85.90
2018-06-09T07:43:34.497Z,85.00
2018-06-09T07:46:03.376Z,85.10
2018-06-09T07:48:32.235Z,84.40
2018-06-09T07:51:01.188Z,82.10
2018-06-09T07:53:30.140Z,82.60
2018-06-09T07:55:58.994Z,83.80
2018-06-09T07:58:27.872Z,83.60
2018-06-09T08:00:56.739Z,82.80
2018-06-09T08:03:25.637Z,83.20
2018-06-09T08:05:54.624Z,82.60
2018-06-09T08:10:51.977Z,82.60
2018-06-09T08:13:20.896Z,81.80
2018-06-09T08:15:49.848Z,81.30
2018-06-09T08:18:18.820Z,81.60
2018-06-09T08:20:47.728Z,79.80
2018-06-09T08:23:16.984Z,78.50
2018-06-09T08:25:45.940Z,77.60
2018-06-09T08:28:14.857Z,77.00
2018-06-09T08:30:43.792Z,77.80
2018-06-09T08:33:12.786Z,76.90
2018-06-09T08:35:41.712Z,76.20
2018-06-09T08:38:10.613Z,74.90
2018-06-09T08:40:39.543Z,74.90
2018-06-09T08:43:08.557Z,72.90
2018-06-09T08:45:38.216Z,72.00
2018-06-09T08:48:07.166Z,71.00
2018-06-09T08:50:36.086Z,71.60
2018-06-09T08:53:05.129Z,71.40
2018-06-09T08:55:34.084Z,72.50
2018-06-09T08:58:02.986Z,71.50
2018-06-09T09:00:31.925Z,72.70
2018-06-09T09:03:00.801Z,70.90
2018-06-09T09:05:29.721Z,71.10
2018-06-09T09:07:58.716Z,69.70
2018-06-09T09:10:27.592Z,70.90
2018-06-09T09:12:56.467Z,68.20
2018-06-09T09:15:25.432Z,69.80
2018-06-09T09:17:54.336Z,65.00
2018-06-09T09:20:23.289Z,63.80
2018-06-09T09:22:52.269Z,63.60
2018-06-09T09:25:21.273Z,66.20
2018-06-09T09:27:50.165Z,62.00
2018-06-09T09:30:19.116Z,61.70
2018-06-09T09:32:48.224Z,62.30
2018-06-09T09:35:17.136Z,61.80
2018-06-09T09:37:46.114Z,60.90
2018-06-09T09:42:43.445Z,59.40
2018-06-09T09:45:12.347Z,59.20
2018-06-09T09:47:41.251Z,59.10
2018-06-09T09:50:10.132Z,58.90
2018-06-09T09:52:39.040Z,57.40
2018-06-09T09:55:07.997Z,57.50
2018-06-09T09:57:48.240Z,58.50
2018-06-09T10:00:23.148Z,58.60
2018-06-09T10:02:52.172Z,56.20
2018-06-09T10:05:21.070Z,56.90
2018-06-09T10:07:50.100Z,57.30
2018-06-09T10:10:29.611Z,58.00
2018-06-09T10:12:59.014Z,58.20
2018-06-09T10:17:56.412Z,56.80
2018-06-09T10:20:38.594Z,55.10
2018-06-09T10:23:10.040Z,55.50
2018-06-09T10:25:40.020Z,55.70
2018-06-09T10:28:10.048Z,55.10
2018-06-09T10:30:43.306Z,55.60
2018-06-09T10:33:24.788Z,56.50
2018-06-09T10:35:53.643Z,54.00
2018-06-09T10:38:22.512Z,53.40
2018-06-09T10:43:19.864Z,53.30
2018-06-09T10:45:48.731Z,52.10
2018-06-09T10:48:17.641Z,50.40
2018-06-09T10:50:46.596Z,49.40
2018-06-09T10:53:15.513Z,50.50
2018-06-09T10:55:45.418Z,52.80
2018-06-09T10:58:14.380Z,52.80
2018-06-09T11:00:43.304Z,52.40
2018-06-09T11:03:12.179Z,50.10
2018-06-09T11:05:41.037Z,49.60
2018-06-09T11:08:15.278Z,50.50
2018-06-09T11:10:57.016Z,50.70
2018-06-09T11:13:27.196Z,49.50
2018-06-09T11:18:55.700Z,48.80
2018-06-09T11:21:25.345Z,48.70
2018-06-09T11:26:28.160Z,48.90
2018-06-09T11:28:57.391Z,49.40
2018-06-09T11:31:26.327Z,49.70
2018-06-09T11:33:55.316Z,50.40
2018-06-09T11:36:24.168Z,51.10
2018-06-09T11:38:53.554Z,50.40
2018-06-09T11:41:22.505Z,49.40
2018-06-09T11:43:51.904Z,49.50
2018-06-09T11:46:20.771Z,50.40
2018-06-09T11:48:49.728Z,48.90
2018-06-09T11:51:18.563Z,49.00
2018-06-09T11:53:47.636Z,49.90
2018-06-09T11:56:16.544Z,49.90
2018-06-09T12:01:16.321Z,49.70
2018-06-09T12:03:45.192Z,49.30
2018-06-09T12:06:14.156Z,49.10
2018-06-09T12:08:43.043Z,49.00
2018-06-09T12:11:12.041Z,48.80
2018-06-09T12:13:40.923Z,48.20
2018-06-09T12:16:09.805Z,48.90
2018-06-09T12:18:38.896Z,48.40
2018-06-09T12:21:07.877Z,48.20
2018-06-09T12:23:36.858Z,48.40
2018-06-09T12:26:05.748Z,47.60
2018-06-09T12:28:34.968Z,47.70
2018-06-09T12:33:32.508Z,48.40
2018-06-09T12:36:01.447Z,47.70
2018-06-09T12:38:30.420Z,48.80
2018-06-09T12:40:59.273Z,50.20
2018-06-09T12:43:28.188Z,50.70
2018-06-09T12:45:57.328Z,52.50
2018-06-09T12:48:26.630Z,54.00
2018-06-09T12:50:56.969Z,55.40
2018-06-09T12:53:25.848Z,56.10
2018-06-09T12:55:54.732Z,56.70
2018-06-09T12:58:23.957Z,55.80
2018-06-09T13:00:54.090Z,55.40
2018-06-09T13:03:23.846Z,56.40
2018-06-09T13:05:52.828Z,55.70
2018-06-09T13:08:22.892Z,53.70
2018-06-09T13:10:51.807Z,53.30
2018-06-09T13:13:22.884Z,51.50
2018-06-09T13:15:54.494Z,49.50
2018-06-09T13:18:23.456Z,48.60
2018-06-09T13:20:52.465Z,48.90
2018-06-09T13:23:21.316Z,48.00
2018-06-09T13:25:50.164Z,47.40
2018-06-09T13:30:47.517Z,45.30
2018-06-09T13:33:16.428Z,45.60
2018-06-09T13:38:13.801Z,45.30
2018-06-09T13:40:42.660Z,45.90
2018-06-09T13:43:11.644Z,45.90
2018-06-09T13:45:40.501Z,45.70
2018-06-09T13:48:09.606Z,44.70
2018-06-09T13:50:38.521Z,44.00
2018-06-09T13:53:07.385Z,44.00
2018-06-09T13:55:36.270Z,43.10
2018-06-09T13:58:05.116Z,43.80
2018-06-09T14:00:34.052Z,44.10
2018-06-09T14:03:02.948Z,44.20
2018-06-09T14:05:31.916Z,43.30
2018-06-09T14:08:00.760Z,42.80
2018-06-09T14:10:29.684Z,42.60
2018-06-09T14:12:58.564Z,42.80
2018-06-09T14:15:27.484Z,42.70
2018-06-09T14:17:56.356Z,44.00
2018-06-09T14:20:26.256Z,41.60
2018-06-09T14:22:55.196Z,42.30
2018-06-09T14:25:24.084Z,42.80
2018-06-09T14:27:52.989Z,42.50
2018-06-09T14:30:22.255Z,42.50
2018-06-09T14:32:51.162Z,43.90
2018-06-09T14:35:20.072Z,43.60
2018-06-09T14:37:48.981Z,43.40
2018-06-09T14:40:17.876Z,43.70
2018-06-09T14:42:46.794Z,43.30
2018-06-09T14:45:15.685Z,42.90
2018-06-09T14:47:44.629Z,43.30
2018-06-09T14:50:13.543Z,44.90
2018-06-09T14:52:42.417Z,45.50
2018-06-09T14:55:12.042Z,46.00
2018-06-09T14:57:40.919Z,46.30
2018-06-09T15:00:09.852Z,46.10
2018-06-09T15:02:38.752Z,47.10
2018-06-09T15:05:07.723Z,46.90
2018-06-09T15:07:36.645Z,47.20
2018-06-09T15:10:05.572Z,47.50
2018-06-09T15:12:34.584Z,48.30
2018-06-09T15:15:03.465Z,50.00
2018-06-09T15:17:32.325Z,51.40
2018-06-09T15:20:01.238Z,54.00
2018-06-09T15:22:30.096Z,55.70
2018-06-09T15:24:59.126Z,55.70
2018-06-09T15:27:28.043Z,56.80
2018-06-09T15:29:56.980Z,57.50
2018-06-09T15:32:25.903Z,57.70
2018-06-09T15:34:54.781Z,58.90
2018-06-09T15:37:23.703Z,59.30
2018-06-09T15:39:52.865Z,59.90
2018-06-09T15:42:21.752Z,60.00
2018-06-09T15:44:50.611Z,59.70
2018-06-09T15:47:19.516Z,59.70
2018-06-09T15:49:48.435Z,59.90
2018-06-09T15:52:17.283Z,60.20
2018-06-09T15:54:46.297Z,59.90
2018-06-09T15:57:15.223Z,60.20
2018-06-09T15:59:44.168Z,60.60
2018-06-09T16:02:13.048Z,60.50
2018-06-09T16:04:41.949Z,60.70
2018-06-09T16:07:10.848Z,61.30
2018-06-09T16:09:39.786Z,61.60
2018-06-09T16:12:08.733Z,61.40
2018-06-09T16:14:37.618Z,62.30
2018-06-09T16:17:06.537Z,63.30
2018-06-09T16:19:35.480Z,63.60
2018-06-09T16:22:04.480Z,63.60
2018-06-09T16:24:33.679Z,64.40
2018-06-09T16:27:02.584Z,64.50
2018-06-09T16:29:31.607Z,64.70
2018-06-09T16:32:00.448Z,64.30
2018-06-09T16:34:29.409Z,63.70
2018-06-09T16:36:58.337Z,64.30
2018-06-09T16:39:27.431Z,64.00
2018-06-09T16:41:56.372Z,63.90
2018-06-09T16:49:22.284Z,64.10
2018-06-09T16:51:51.278Z,65.00
2018-06-09T16:54:20.177Z,65.80
2018-06-09T16:56:49.141Z,66.40
2018-06-09T16:59:18.075Z,66.60
2018-06-09T17:01:47.565Z,66.30
2018-06-09T17:04:16.545Z,66.40
2018-06-09T17:06:45.515Z,66.10
2018-06-09T17:09:14.494Z,65.90
2018-06-09T17:11:43.423Z,65.80
2018-06-09T17:14:12.481Z,64.80
2018-06-09T17:16:41.341Z,65.50
2018-06-09T17:19:10.198Z,67.00
2018-06-09T17:21:39.123Z,67.50
2018-06-09T17:24:08.042Z,68.00
2018-06-09T17:26:36.930Z,68.10
2018-06-09T17:29:05.891Z,68.40
2018-06-09T17:31:34.813Z,67.60
2018-06-09T17:34:03.708Z,67.30
2018-06-09T17:36:32.617Z,67.70
2018-06-09T17:39:01.521Z,67.80
2018-06-09T17:43:58.971Z,67.80
2018-06-09T17:46:27.836Z,68.40
2018-06-09T17:48:56.758Z,67.70
2018-06-09T17:51:25.637Z,67.90
2018-06-09T17:53:54.541Z,68.20
2018-06-09T17:58:51.908Z,70.10
2018-06-09T18:01:20.796Z,70.10
2018-06-09T18:03:49.692Z,70.70
2018-06-09T18:06:18.582Z,71.70
2018-06-09T18:08:47.510Z,72.50
2018-06-09T18:11:16.727Z,72.80
2018-06-09T18:13:45.708Z,73.00
2018-06-09T18:16:14.572Z,73.40
2018-06-09T18:18:43.457Z,73.40
2018-06-09T18:23:46.388Z,74.70
2018-06-09T18:26:15.231Z,75.70
2018-06-09T18:28:44.140Z,75.80
2018-06-09T18:31:13.040Z,76.90
2018-06-09T18:33:41.964Z,77.30
2018-06-09T18:36:10.912Z,77.70
2018-06-09T18:38:39.868Z,77.80
2018-06-09T18:41:08.787Z,77.70
2018-06-09T18:43:37.656Z,77.90
2018-06-09T18:53:31.952Z,77.60
2018-06-09T18:56:00.888Z,77.60
2018-06-09T18:58:29.752Z,78.20
2018-06-09T19:00:58.628Z,78.40
2018-06-09T19:03:27.517Z,78.40
2018-06-09T19:05:56.729Z,78.60
2018-06-09T19:08:26.525Z,78.70
2018-06-09T19:13:24.077Z,79.20
2018-06-09T19:15:53.030Z,78.90
2018-06-09T19:18:21.983Z,78.70
2018-06-09T19:20:50.828Z,79.10
2018-06-09T19:23:20.454Z,79.40
2018-06-09T19:25:49.321Z,79.10
2018-06-09T19:28:19.208Z,79.00
2018-06-09T19:30:48.388Z,78.80
2018-06-09T19:33:17.528Z,78.80
2018-06-09T19:35:46.612Z,78.90
2018-06-09T19:38:15.720Z,79.70
2018-06-09T19:40:44.657Z,78.90
2018-06-09T19:43:14.280Z,78.80
2018-06-09T19:45:43.144Z,79.20
2018-06-09T19:50:40.548Z,79.20
2018-06-09T19:53:09.380Z,79.30
2018-06-09T19:55:38.302Z,78.70
2018-06-09T19:58:07.149Z,79.00
2018-06-09T20:00:36.087Z,78.30
2018-06-09T20:03:05.077Z,78.70
2018-06-09T20:05:34.108Z,78.90
2018-06-09T20:08:02.988Z,78.70
2018-06-09T20:10:31.991Z,78.70
2018-06-09T20:13:01.083Z,79.10
2018-06-09T20:15:30.208Z,79.30
2018-06-09T20:17:59.476Z,79.40
2018-06-09T20:20:28.363Z,80.40
2018-06-09T20:22:58.066Z,79.60
2018-06-09T20:25:26.963Z,79.50
2018-06-09T20:27:55.829Z,79.30
2018-06-09T20:30:24.715Z,79.00
2018-06-09T20:32:53.621Z,78.30
2018-06-09T20:35:22.557Z,78.90
2018-06-09T20:37:51.420Z,79.30
2018-06-09T20:40:20.329Z,79.80
2018-06-09T20:42:49.204Z,79.90
2018-06-09T20:45:18.126Z,79.80
2018-06-09T20:47:47.024Z,79.70
2018-06-09T20:50:15.893Z,80.00
2018-06-09T20:52:44.785Z,80.20
2018-06-09T20:57:42.188Z,80.80
2018-06-09T21:00:11.051Z,81.00
2018-06-09T21:02:40.094Z,80.80
2018-06-09T21:05:09.133Z,80.80
2018-06-09T21:07:38.001Z,81.70
2018-06-09T21:10:06.902Z,81.80
2018-06-09T21:12:35.872Z,81.80
2018-06-09T21:15:04.809Z,82.00
2018-06-09T21:17:33.696Z,81.90
2018-06-09T21:20:03.305Z,82.20
2018-06-09T21:22:32.212Z,82.40
2018-06-09T21:25:01.088Z,82.50
2018-06-09T21:27:34.896Z,82.60
2018-06-09T21:30:10.893Z,82.30
2018-06-09T21:32:45.540Z,82.70
2018-06-09T21:37:57.728Z,82.60
2018-06-09T21:40:30.724Z,83.10
2018-06-09T21:43:04.800Z,83.60
2018-06-09T21:45:38.920Z,83.10
2018-06-09T21:48:07.780Z,83.70
2018-06-09T21:53:29.560Z,83.40
2018-06-09T21:55:58.468Z,83.80
2018-06-09T21:58:27.309Z,83.60
2018-06-09T22:00:56.357Z,83.50
2018-06-09T22:03:25.192Z,83.10
2018-06-09T22:05:54.104Z,83.10
2018-06-09T22:08:23.020Z,83.20
2018-06-09T22:10:51.952Z,83.00
2018-06-09T22:13:20.944Z,83.10
2018-06-09T22:15:49.786Z,83.10
2018-06-09T22:20:47.091Z,83.10
2018-06-09T22:23:15.996Z,83.40
2018-06-09T22:25:50.008Z,84.20
2018-06-09T22:28:18.915Z,84.80
2018-06-09T22:30:47.758Z,84.70
2018-06-09T22:33:16.668Z,84.00
2018-06-09T22:35:45.545Z,83.90
2018-06-09T22:38:14.772Z,83.20
2018-06-09T22:40:43.640Z,83.20
2018-06-09T22:43:13.040Z,83.90
2018-06-09T22:45:41.983Z,84.30
2018-06-09T22:48:10.817Z,84.40
2018-06-09T22:50:39.744Z,84.40
2018-06-09T22:53:08.624Z,84.10
2018-06-09T22:55:37.528Z,83.90
2018-06-09T22:58:06.447Z,83.60
2018-06-09T23:00:47.916Z,83.40
2018-06-09T23:03:17.325Z,83.10
2018-06-09T23:05:46.586Z,83.20
2018-06-09T23:08:15.483Z,83.30
2018-06-09T23:10:44.381Z,83.70
2018-06-09T23:15:42.663Z,85.10
2018-06-09T23:18:11.568Z,85.60
2018-06-09T23:23:09.275Z,85.60
2018-06-09T23:25:38.124Z,86.20
2018-06-09T23:30:35.450Z,85.90
2018-06-09T23:33:04.301Z,85.90
2018-06-09T23:35:33.172Z,86.00
2018-06-09T23:45:27.461Z,86.90
2018-06-09T23:47:56.320Z,86.60
2018-06-09T23:50:25.193Z,86.40
2018-06-09T23:52:54.199Z,86.20
2018-06-09T23:55:23.053Z,85.80
2018-06-09T23:57:51.939Z,85.50
